Time;durP1;ratioP1;P1;durP2;ratioP2;P2;SDS_P1;SDS_P2;PMS_P1;PMS_P2;Temp;Humidity;BMP_temperature;BMP_pressure;BME280_temperature;BME280_humidity;BME280_pressure;Samples;Min_cycle;Max_cycle;Signal;HPM_P1;HPM_P2
2021/03/05 00:01:08;;;;;;;13.70;5.83;;;4.40;81.00;;;;;;4982849;28;20417;-84
2021/03/05 00:03:42;;;;;;;6.70;4.83;;;4.30;80.40;;;;;;4991184;28;20425;-85
2021/03/05 00:06:24;;;;;;;17.57;5.60;;;4.30;80.40;;;;;;5003390;28;20480;-83
2021/03/05 00:09:31;;;;;;;16.17;5.63;;;4.30;80.40;;;;;;4994351;28;20406;-83
2021/03/05 00:11:57;;;;;;;17.83;5.53;;;4.30;80.20;;;;;;4989013;28;20417;-80
2021/03/05 00:14:23;;;;;;;12.40;3.90;;;4.30;80.00;;;;;;5015624;28;20482;-80
2021/03/05 00:16:48;;;;;;;17.80;4.67;;;4.30;80.10;;;;;;5007845;28;20211;-79
2021/03/05 00:19:14;;;;;;;16.97;3.87;;;4.30;80.20;;;;;;5007376;28;20223;-79
2021/03/05 00:21:40;;;;;;;16.23;5.27;;;4.20;80.30;;;;;;5025786;28;20258;-79
2021/03/05 00:24:06;;;;;;;12.07;3.80;;;4.20;80.50;;;;;;5009151;28;20171;-80
2021/03/05 00:26:32;;;;;;;17.53;4.90;;;4.20;80.50;;;;;;5009083;28;20207;-80
2021/03/05 00:28:57;;;;;;;6.67;3.90;;;4.20;80.40;;;;;;4999933;28;20537;-80
2021/03/05 00:31:23;;;;;;;23.53;4.60;;;4.20;80.60;;;;;;5000812;28;20172;-79
2021/03/05 00:33:49;;;;;;;8.60;3.77;;;4.20;81.00;;;;;;5008751;28;20182;-79
2021/03/05 00:36:15;;;;;;;7.87;4.00;;;4.20;81.10;;;;;;5022205;28;20194;-80
2021/03/05 00:38:41;;;;;;;12.30;4.03;;;4.20;81.30;;;;;;4980822;28;20180;-81
2021/03/05 00:41:10;;;;;;;9.00;3.90;;;4.20;80.60;;;;;;5010674;28;20476;-80
2021/03/05 00:43:36;;;;;;;9.93;4.40;;;4.20;80.50;;;;;;5004457;28;20505;-81
2021/03/05 00:46:02;;;;;;;8.20;3.43;;;4.10;80.50;;;;;;4995638;28;20480;-80
2021/03/05 00:48:29;;;;;;;15.17;4.13;;;4.10;80.70;;;;;;5007246;28;20687;-80
2021/03/05 00:50:55;;;;;;;16.00;3.80;;;4.10;80.60;;;;;;5008060;28;20426;-80
2021/03/05 00:53:21;;;;;;;10.80;4.40;;;4.00;80.70;;;;;;4993471;28;20168;-80
2021/03/05 00:55:47;;;;;;;11.13;4.20;;;4.00;81.10;;;;;;5011963;28;20191;-80
2021/03/05 00:58:17;;;;;;;11.50;4.80;;;4.00;80.50;;;;;;5000888;28;20258;-80
2021/03/05 01:00:43;;;;;;;9.60;4.20;;;4.00;80.80;;;;;;5002402;28;20419;-80
2021/03/05 01:03:12;;;;;;;18.07;5.60;;;3.90;81.00;;;;;;5018525;28;20237;-80
2021/03/05 01:05:38;;;;;;;25.57;6.57;;;3.90;81.60;;;;;;5008238;28;20430;-79
2021/03/05 01:08:07;;;;;;;14.70;5.63;;;3.80;82.00;;;;;;4994979;28;20439;-79
2021/03/05 01:10:39;;;;;;;12.50;5.80;;;3.80;82.50;;;;;;4993377;28;20407;-79
2021/03/05 01:13:06;;;;;;;14.53;5.40;;;3.70;82.90;;;;;;4994905;28;20885;-79
2021/03/05 01:15:31;;;;;;;14.47;6.03;;;3.60;83.50;;;;;;5000772;28;20425;-79
2021/03/05 01:17:57;;;;;;;17.03;5.93;;;3.60;84.20;;;;;;5013425;28;20516;-79
2021/03/05 01:20:25;;;;;;;11.93;5.30;;;3.50;84.60;;;;;;4998369;28;20174;-80
2021/03/05 01:22:51;;;;;;;19.20;6.10;;;3.50;85.00;;;;;;5017387;28;20655;-80
2021/03/05 01:25:22;;;;;;;12.83;6.10;;;3.40;85.20;;;;;;5007087;28;20430;-80
2021/03/05 01:27:48;;;;;;;18.90;6.33;;;3.40;85.30;;;;;;5031732;28;20607;-80
2021/03/05 01:30:15;;;;;;;15.40;5.47;;;3.40;85.40;;;;;;5005823;28;20470;-81
2021/03/05 01:32:41;;;;;;;19.67;6.33;;;3.40;85.30;;;;;;5005264;28;20995;-80
2021/03/05 01:35:12;;;;;;;14.80;5.53;;;3.40;85.30;;;;;;4986477;28;20418;-80
2021/03/05 01:37:38;;;;;;;14.77;5.57;;;3.40;84.90;;;;;;5024516;28;20457;-80
2021/03/05 01:40:08;;;;;;;14.03;5.77;;;3.40;84.90;;;;;;5024195;28;20453;-79
2021/03/05 01:42:34;;;;;;;11.70;4.90;;;3.40;84.70;;;;;;5005703;28;20245;-80
2021/03/05 01:45:00;;;;;;;19.17;8.00;;;3.40;84.60;;;;;;5023874;28;20415;-79
2021/03/05 01:47:26;;;;;;;14.70;5.70;;;3.40;84.00;;;;;;5003566;28;20649;-80
2021/03/05 01:49:53;;;;;;;12.80;5.33;;;3.40;84.00;;;;;;5003501;28;20156;-80
2021/03/05 01:52:18;;;;;;;13.43;4.87;;;3.40;83.70;;;;;;4999487;28;20832;-80
2021/03/05 01:54:44;;;;;;;14.70;5.10;;;3.40;83.70;;;;;;5008457;28;20441;-80
2021/03/05 01:57:10;;;;;;;15.93;4.40;;;3.50;83.70;;;;;;5005670;28;20263;-79
2021/03/05 01:59:36;;;;;;;13.10;5.20;;;3.50;84.40;;;;;;5000436;28;20552;-79
2021/03/05 02:02:07;;;;;;;27.47;5.90;;;3.50;83.70;;;;;;4997021;28;20515;-79
2021/03/05 02:04:37;;;;;;;28.03;6.37;;;3.50;83.60;;;;;;4994790;28;20472;-79
2021/03/05 02:07:07;;;;;;;18.50;6.03;;;3.50;83.50;;;;;;4977613;28;20473;-79
2021/03/05 02:09:34;;;;;;;11.23;4.20;;;3.50;83.40;;;;;;4994949;28;20423;-79
2021/03/05 02:12:00;;;;;;;14.63;4.37;;;3.50;83.50;;;;;;4995540;28;20505;-78
2021/03/05 02:14:27;;;;;;;11.57;4.50;;;3.60;83.10;;;;;;4995759;28;20407;-79
2021/03/05 02:17:17;;;;;;;14.00;5.50;;;3.60;82.50;;;;;;5016219;28;20473;-79
2021/03/05 02:20:21;;;;;;;18.23;4.53;;;3.60;82.30;;;;;;5017178;28;20429;-79
2021/03/05 02:23:45;;;;;;;12.03;4.37;;;3.60;82.20;;;;;;5000823;28;20410;-79
2021/03/05 02:26:34;;;;;;;11.60;5.80;;;3.60;81.90;;;;;;4969568;28;20460;-79
2021/03/05 02:29:42;;;;;;;17.30;4.93;;;3.60;81.30;;;;;;5013595;28;20431;-79
2021/03/05 02:32:25;;;;;;;18.43;6.70;;;3.60;81.20;;;;;;5017304;28;20410;-79
2021/03/05 02:34:52;;;;;;;15.37;7.13;;;3.60;80.60;;;;;;4983894;28;20407;-79
2021/03/05 02:37:18;;;;;;;12.80;4.50;;;3.60;80.60;;;;;;4998795;28;20419;-79
2021/03/05 02:39:59;;;;;;;19.67;5.63;;;3.60;80.90;;;;;;4999132;28;20426;-79
2021/03/05 02:42:59;;;;;;;17.33;5.40;;;3.60;81.10;;;;;;5000352;28;20517;-80
2021/03/05 02:45:33;;;;;;;19.10;9.00;;;3.60;81.40;;;;;;4991779;28;20419;-80
2021/03/05 02:48:07;;;;;;;33.77;10.00;;;3.60;82.30;;;;;;5000941;28;20462;-79
2021/03/05 02:50:34;;;;;;;36.37;11.17;;;3.60;83.00;;;;;;5015007;28;20773;-79
2021/03/05 02:53:06;;;;;;;31.47;9.67;;;3.60;83.50;;;;;;4996694;28;20458;-79
2021/03/05 02:55:33;;;;;;;26.77;10.23;;;3.60;84.20;;;;;;4995558;28;20419;-80
2021/03/05 02:58:01;;;;;;;34.97;11.10;;;3.60;84.60;;;;;;4994017;28;20471;-78
2021/03/05 03:00:28;;;;;;;28.77;9.87;;;3.60;85.10;;;;;;4997723;28;20781;-79
2021/03/05 03:02:55;;;;;;;23.00;8.43;;;3.60;85.50;;;;;;5013481;28;20504;-79
2021/03/05 03:05:21;;;;;;;28.43;8.33;;;3.60;85.20;;;;;;5014415;28;20469;-79
2021/03/05 03:07:49;;;;;;;27.13;8.80;;;3.50;85.30;;;;;;5013979;28;20483;-79
2021/03/05 03:10:16;;;;;;;29.93;9.53;;;3.50;85.70;;;;;;4993093;28;20509;-79
2021/03/05 03:12:43;;;;;;;29.57;8.93;;;3.50;85.50;;;;;;4994266;28;20403;-78
2021/03/05 03:15:10;;;;;;;20.10;8.33;;;3.50;85.80;;;;;;4993120;28;20534;-78
2021/03/05 03:17:38;;;;;;;17.87;7.93;;;3.50;85.70;;;;;;4994015;28;20518;-79
2021/03/05 03:20:05;;;;;;;20.20;8.77;;;3.50;85.90;;;;;;4996806;28;20426;-79
2021/03/05 03:22:31;;;;;;;25.23;8.93;;;3.50;85.90;;;;;;5015505;28;20472;-79
2021/03/05 03:24:58;;;;;;;32.17;9.33;;;3.60;86.20;;;;;;5014723;28;20626;-80
2021/03/05 03:27:23;;;;;;;24.67;9.10;;;3.60;86.30;;;;;;4996742;28;20203;-80
2021/03/05 03:29:49;;;;;;;22.13;9.50;;;3.60;86.40;;;;;;4993218;28;20966;-79
2021/03/05 03:32:15;;;;;;;29.47;10.90;;;3.60;86.40;;;;;;5014686;28;20179;-79
2021/03/05 03:34:41;;;;;;;31.93;10.60;;;3.60;86.40;;;;;;5014111;28;20163;-79
2021/03/05 03:37:09;;;;;;;21.97;9.80;;;3.60;86.70;;;;;;5013798;28;20434;-79
2021/03/05 03:39:35;;;;;;;30.20;11.83;;;3.60;87.00;;;;;;5015580;28;20430;-80
2021/03/05 03:42:02;;;;;;;36.40;11.27;;;3.70;87.20;;;;;;4996428;28;20426;-79
2021/03/05 03:44:28;;;;;;;32.57;12.77;;;3.70;87.30;;;;;;4994574;28;20425;-81
2021/03/05 03:46:55;;;;;;;33.60;13.73;;;3.70;87.10;;;;;;4994335;28;20475;-79
2021/03/05 03:49:31;;;;;;;26.00;13.73;;;3.70;87.30;;;;;;4994243;28;20263;-79
2021/03/05 03:52:01;;;;;;;31.03;12.50;;;3.70;87.30;;;;;;5009313;28;20428;-79
2021/03/05 03:54:27;;;;;;;32.70;13.53;;;3.80;87.40;;;;;;5030774;28;20446;-79
2021/03/05 03:56:58;;;;;;;34.67;15.60;;;3.80;87.30;;;;;;5030277;28;20468;-80
2021/03/05 03:59:26;;;;;;;25.30;12.97;;;3.80;87.20;;;;;;4996555;28;20501;-79
2021/03/05 04:01:55;;;;;;;26.63;12.00;;;3.80;87.10;;;;;;5012162;28;20421;-79
2021/03/05 04:04:23;;;;;;;30.67;13.50;;;3.80;86.60;;;;;;5013277;28;20952;-79
2021/03/05 04:06:51;;;;;;;26.87;11.80;;;3.80;86.60;;;;;;5013392;28;20465;-80
2021/03/05 04:09:18;;;;;;;26.07;13.57;;;3.80;86.60;;;;;;5010571;28;20533;-79
2021/03/05 04:11:44;;;;;;;32.20;13.13;;;3.80;86.40;;;;;;5014925;28;20425;-80
2021/03/05 04:14:10;;;;;;;26.17;13.73;;;3.80;86.40;;;;;;5022384;28;20417;-79
2021/03/05 04:16:36;;;;;;;26.43;12.93;;;3.80;86.30;;;;;;5013287;28;20195;-79
2021/03/05 04:19:03;;;;;;;27.30;12.77;;;3.90;86.20;;;;;;5023387;28;20414;-79
2021/03/05 04:21:35;;;;;;;28.80;13.70;;;3.80;86.10;;;;;;5019933;28;20425;-79
2021/03/05 04:24:01;;;;;;;24.57;13.17;;;3.80;86.00;;;;;;4999306;28;20918;-79
2021/03/05 04:26:27;;;;;;;26.23;13.37;;;3.80;85.90;;;;;;4996805;28;20535;-79
2021/03/05 04:28:52;;;;;;;28.87;13.13;;;3.80;86.00;;;;;;4995441;28;20919;-79
2021/03/05 04:31:18;;;;;;;30.80;14.40;;;3.70;85.90;;;;;;5003876;28;20535;-79
2021/03/05 04:33:44;;;;;;;26.87;13.20;;;3.70;85.80;;;;;;5016528;28;20171;-78
2021/03/05 04:36:09;;;;;;;23.30;13.50;;;3.60;86.00;;;;;;5011632;28;20408;-79
2021/03/05 04:38:35;;;;;;;22.40;12.87;;;3.50;85.90;;;;;;5003300;28;20183;-80
2021/03/05 04:41:01;;;;;;;26.00;13.47;;;3.50;85.90;;;;;;5005288;28;20175;-80
2021/03/05 04:43:26;;;;;;;23.23;13.40;;;3.50;85.70;;;;;;5014760;28;20258;-80
2021/03/05 04:45:52;;;;;;;30.03;13.73;;;3.40;85.70;;;;;;5014239;28;20190;-80
2021/03/05 04:48:18;;;;;;;25.30;12.60;;;3.40;85.80;;;;;;5032594;23;20573;-72
2021/03/05 04:50:43;;;;;;;26.50;13.83;;;3.30;85.60;;;;;;5004107;28;20175;-72
2021/03/05 04:53:10;;;;;;;21.77;12.10;;;3.30;85.60;;;;;;4983210;28;20174;-72
2021/03/05 04:55:35;;;;;;;28.57;13.33;;;3.30;85.60;;;;;;4970423;28;20234;-72
2021/03/05 04:58:01;;;;;;;23.37;12.33;;;3.30;85.70;;;;;;4995676;28;20411;-73
2021/03/05 05:00:27;;;;;;;26.03;12.90;;;3.20;85.80;;;;;;5013066;28;20195;-71
2021/03/05 05:02:53;;;;;;;23.13;12.57;;;3.20;85.80;;;;;;5011091;28;20807;-71
2021/03/05 05:05:19;;;;;;;19.33;11.00;;;3.20;85.50;;;;;;4986169;28;20417;-71
2021/03/05 05:07:44;;;;;;;22.40;12.03;;;3.20;85.50;;;;;;5015982;28;20198;-72
2021/03/05 05:10:11;;;;;;;21.37;11.10;;;3.20;85.00;;;;;;5015145;28;20446;-74
2021/03/05 05:12:37;;;;;;;26.80;12.30;;;3.20;84.30;;;;;;4998245;28;20210;-73
2021/03/05 05:15:05;;;;;;;24.07;11.30;;;3.20;84.00;;;;;;4996454;28;20456;-72
2021/03/05 05:17:30;;;;;;;24.07;9.80;;;3.30;83.80;;;;;;5015161;28;20163;-74
2021/03/05 05:19:56;;;;;;;15.27;9.90;;;3.40;83.30;;;;;;4997476;28;20446;-71
2021/03/05 05:22:22;;;;;;;18.97;10.57;;;3.40;82.60;;;;;;4996322;28;20175;-72
2021/03/05 05:24:48;;;;;;;18.50;10.30;;;3.50;82.10;;;;;;4996595;28;20423;-70
2021/03/05 05:27:14;;;;;;;18.10;9.73;;;3.50;81.10;;;;;;4979088;28;20211;-72
2021/03/05 05:29:39;;;;;;;16.33;9.73;;;3.60;80.20;;;;;;4996587;28;20582;-71
2021/03/05 05:32:05;;;;;;;15.90;9.90;;;3.60;79.40;;;;;;4995142;28;20426;-73
2021/03/05 05:34:31;;;;;;;19.20;8.37;;;3.60;78.10;;;;;;5015603;28;20171;-72
2021/03/05 05:36:57;;;;;;;17.07;9.07;;;3.70;77.00;;;;;;4997578;28;20463;-73
2021/03/05 05:39:23;;;;;;;12.83;8.47;;;3.70;76.20;;;;;;5001396;28;20194;-72
2021/03/05 05:41:48;;;;;;;17.53;8.50;;;3.70;75.00;;;;;;5010374;28;20419;-72
2021/03/05 05:44:14;;;;;;;17.20;7.90;;;3.80;74.90;;;;;;5011041;28;20202;-72
2021/03/05 05:46:42;;;;;;;15.40;8.70;;;3.80;74.90;;;;;;5020232;28;20197;-74
2021/03/05 05:49:10;;;;;;;15.47;9.10;;;3.80;75.30;;;;;;4993799;28;20282;-74
2021/03/05 05:51:39;;;;;;;18.30;10.20;;;3.80;75.90;;;;;;4994948;28;20505;-72
2021/03/05 05:54:09;;;;;;;14.97;9.10;;;3.90;76.20;;;;;;4995501;28;20423;-73
2021/03/05 05:56:40;;;;;;;16.40;9.97;;;3.80;76.60;;;;;;4995644;28;20430;-72
2021/03/05 05:59:06;;;;;;;16.50;8.97;;;3.80;76.70;;;;;;4996853;28;20423;-73
2021/03/05 06:01:34;;;;;;;18.83;10.60;;;3.80;76.80;;;;;;4979072;28;20423;-72
2021/03/05 06:04:04;;;;;;;18.53;11.00;;;3.80;77.30;;;;;;4995805;28;20774;-73
2021/03/05 06:06:30;;;;;;;20.17;12.13;;;3.80;77.50;;;;;;5012070;28;20461;-73
2021/03/05 06:08:59;;;;;;;14.33;8.63;;;3.80;78.00;;;;;;4994343;28;20493;-74
2021/03/05 06:11:40;;;;;;;22.13;10.73;;;3.80;78.10;;;;;;5010067;28;20852;-73
2021/03/05 06:14:10;;;;;;;22.63;12.10;;;3.80;78.30;;;;;;5014279;28;20418;-74
2021/03/05 06:16:55;;;;;;;21.77;13.30;;;3.80;78.40;;;;;;4996415;28;20410;-71
2021/03/05 06:19:23;;;;;;;20.93;13.43;;;3.80;78.30;;;;;;5001802;28;20458;-72
2021/03/05 06:21:49;;;;;;;16.23;10.13;;;3.80;78.40;;;;;;4977618;28;20943;-73
2021/03/05 06:24:16;;;;;;;22.30;11.30;;;3.80;78.60;;;;;;4994409;28;20423;-72
2021/03/05 06:26:57;;;;;;;20.80;10.30;;;3.80;78.60;;;;;;5009667;28;20210;-74
2021/03/05 06:29:24;;;;;;;20.83;11.03;;;3.80;78.30;;;;;;5010296;28;20842;-72
2021/03/05 06:31:54;;;;;;;19.73;10.80;;;3.80;78.40;;;;;;5012198;28;20516;-72
2021/03/05 06:34:21;;;;;;;18.93;11.33;;;3.80;78.20;;;;;;5013579;28;20410;-72
2021/03/05 06:37:01;;;;;;;18.60;11.80;;;3.80;78.40;;;;;;5013890;28;20799;-73
2021/03/05 06:39:28;;;;;;;17.00;9.77;;;3.80;78.30;;;;;;5001349;28;20800;-72
2021/03/05 06:42:06;;;;;;;12.40;8.10;;;3.80;78.10;;;;;;4982550;28;20457;-72
2021/03/05 06:44:35;;;;;;;17.77;10.17;;;3.80;77.70;;;;;;5011968;28;20490;-72
2021/03/05 06:47:19;;;;;;;14.83;9.83;;;3.80;77.80;;;;;;5013111;28;20489;-72
2021/03/05 06:49:46;;;;;;;16.70;8.97;;;3.80;77.50;;;;;;5001335;28;21186;-72
2021/03/05 06:52:14;;;;;;;15.73;9.00;;;3.80;77.30;;;;;;4989765;28;20469;-73
2021/03/05 06:54:41;;;;;;;12.50;8.90;;;3.70;77.30;;;;;;5013821;28;20418;-74
2021/03/05 06:57:08;;;;;;;16.20;8.60;;;3.70;77.30;;;;;;5019328;28;20429;-73
2021/03/05 06:59:44;;;;;;;17.80;9.43;;;3.70;77.20;;;;;;5036339;28;20433;-72
2021/03/05 07:02:15;;;;;;;17.83;8.30;;;3.70;76.80;;;;;;5029231;28;20864;-72
2021/03/05 07:04:50;;;;;;;14.97;8.27;;;3.80;76.70;;;;;;5027566;28;20414;-72
2021/03/05 07:07:18;;;;;;;12.10;7.83;;;3.90;75.40;;;;;;5034568;28;20694;-72
2021/03/05 07:09:45;;;;;;;14.80;9.30;;;3.90;75.20;;;;;;5020734;28;20901;-72
2021/03/05 07:12:12;;;;;;;16.87;7.73;;;4.00;75.30;;;;;;4996989;28;20421;-72
2021/03/05 07:14:40;;;;;;;11.83;7.30;;;4.00;74.70;;;;;;5002822;28;20431;-73
2021/03/05 07:17:06;;;;;;;13.77;8.20;;;4.00;73.90;;;;;;4988570;28;20422;-73
2021/03/05 07:19:39;;;;;;;13.43;8.77;;;3.90;74.50;;;;;;5038530;28;20434;-72
2021/03/05 07:22:07;;;;;;;15.10;7.40;;;3.90;74.50;;;;;;5020966;28;20425;-73
2021/03/05 07:24:34;;;;;;;10.90;6.60;;;3.90;74.60;;;;;;5023425;28;20895;-73
2021/03/05 07:27:02;;;;;;;15.00;7.73;;;4.00;74.60;;;;;;5017980;28;20450;-74
2021/03/05 07:29:38;;;;;;;17.43;7.83;;;4.00;74.10;;;;;;5009264;28;20473;-73
2021/03/05 07:32:15;;;;;;;16.83;7.77;;;4.00;73.50;;;;;;4984200;28;20429;-73
2021/03/05 07:34:58;;;;;;;12.13;5.30;;;4.10;73.40;;;;;;4993881;28;20729;-75
2021/03/05 07:37:36;;;;;;;9.50;5.53;;;4.00;73.10;;;;;;5008261;28;20471;-75
2021/03/05 07:40:16;;;;;;;12.10;6.63;;;4.00;73.10;;;;;;5010123;28;20448;-72
2021/03/05 07:42:43;;;;;;;10.10;5.57;;;3.90;72.60;;;;;;5005049;28;20413;-73
2021/03/05 07:45:10;;;;;;;8.50;6.03;;;3.90;72.60;;;;;;5020074;28;20764;-73
2021/03/05 07:47:40;;;;;;;11.07;5.87;;;3.80;72.50;;;;;;5010508;28;20467;-73
2021/03/05 07:50:08;;;;;;;9.80;6.50;;;3.80;73.00;;;;;;5003433;28;20973;-72
2021/03/05 07:52:35;;;;;;;8.53;5.40;;;3.80;73.40;;;;;;4992454;28;20506;-73
2021/03/05 07:55:01;;;;;;;10.27;5.87;;;3.80;72.80;;;;;;5001200;28;20413;-73
2021/03/05 07:57:43;;;;;;;6.70;4.93;;;3.90;73.30;;;;;;4985376;28;20761;-74
2021/03/05 08:00:10;;;;;;;12.10;5.00;;;4.10;74.10;;;;;;5011439;28;20541;-72
2021/03/05 08:02:55;;;;;;;8.20;5.10;;;5.40;72.70;;;;;;4994950;28;20418;-73
2021/03/05 08:05:38;;;;;;;7.53;4.67;;;7.30;64.60;;;;;;4975072;28;20506;-73
2021/03/05 08:08:18;;;;;;;8.57;4.80;;;8.60;58.80;;;;;;5000189;28;20790;-75
2021/03/05 08:10:48;;;;;;;7.83;4.43;;;9.40;55.40;;;;;;5008286;28;20481;-73
2021/03/05 08:13:54;;;;;;;9.13;4.40;;;9.60;53.50;;;;;;5010956;28;20405;-74
2021/03/05 08:16:29;;;;;;;7.67;4.30;;;9.80;52.60;;;;;;5009960;28;20818;-74
2021/03/05 08:19:03;;;;;;;5.43;3.50;;;9.90;52.40;;;;;;4988529;28;20446;-77
2021/03/05 08:21:51;;;;;;;12.83;4.83;;;9.70;52.10;;;;;;4988982;28;20445;-73
2021/03/05 08:24:27;;;;;;;5.57;3.87;;;9.70;52.70;;;;;;5025703;28;20416;-73
2021/03/05 08:27:05;;;;;;;10.97;4.13;;;10.20;50.70;;;;;;5011582;28;20539;-76
2021/03/05 08:29:53;;;;;;;6.63;4.27;;;10.20;50.00;;;;;;5015444;28;20430;-76
2021/03/05 08:32:34;;;;;;;9.63;4.23;;;10.00;49.30;;;;;;5010303;28;20428;-75
2021/03/05 08:35:00;;;;;;;8.63;4.20;;;9.90;50.90;;;;;;4993957;28;20410;-75
2021/03/05 08:37:30;;;;;;;6.10;4.63;;;10.20;49.60;;;;;;4996018;28;20425;-77
2021/03/05 08:40:15;;;;;;;6.03;4.77;;;10.80;48.50;;;;;;5004275;28;20453;-75
2021/03/05 08:42:47;;;;;;;6.90;5.00;;;11.60;47.60;;;;;;4998641;28;20421;-75
2021/03/05 08:45:13;;;;;;;10.00;5.53;;;12.10;47.00;;;;;;5014826;28;20476;-76
2021/03/05 08:47:52;;;;;;;10.87;7.60;;;12.80;43.80;;;;;;5016741;28;20477;-74
2021/03/05 08:50:21;;;;;;;8.93;5.67;;;12.90;43.60;;;;;;5015357;28;20186;-75
2021/03/05 08:52:49;;;;;;;9.70;5.27;;;13.10;42.90;;;;;;4989781;28;20430;-73
2021/03/05 08:55:17;;;;;;;12.03;6.57;;;13.40;40.90;;;;;;5024582;28;20424;-74
2021/03/05 08:57:42;;;;;;;7.80;5.30;;;13.30;41.60;;;;;;5004849;28;20410;-75
2021/03/05 09:00:13;;;;;;;8.50;5.67;;;13.30;41.30;;;;;;5004653;28;20974;-73
2021/03/05 09:02:39;;;;;;;6.53;4.47;;;13.20;41.90;;;;;;5013021;28;20163;-73
2021/03/05 09:05:06;;;;;;;10.30;5.80;;;13.30;40.10;;;;;;4996018;28;20410;-74
2021/03/05 09:07:32;;;;;;;5.67;3.53;;;13.50;40.20;;;;;;5012647;28;20477;-73
2021/03/05 09:09:58;;;;;;;12.87;6.50;;;13.90;39.80;;;;;;4992034;28;20438;-74
2021/03/05 09:12:24;;;;;;;10.30;4.63;;;13.80;38.40;;;;;;5011788;28;20176;-72
2021/03/05 09:15:03;;;;;;;5.33;4.07;;;13.40;39.50;;;;;;5015228;28;20406;-74
2021/03/05 09:17:29;;;;;;;5.30;3.57;;;13.60;39.30;;;;;;5012252;28;20437;-75
2021/03/05 09:19:54;;;;;;;6.53;3.90;;;13.70;38.60;;;;;;4997003;28;20441;-74
2021/03/05 09:22:25;;;;;;;6.40;3.80;;;13.50;38.80;;;;;;5013796;28;20945;-75
2021/03/05 09:24:51;;;;;;;5.47;4.20;;;13.20;38.90;;;;;;4995134;28;20307;-74
2021/03/05 09:27:27;;;;;;;6.43;3.77;;;12.60;39.10;;;;;;4985799;28;20477;-75
2021/03/05 09:29:53;;;;;;;8.30;4.83;;;11.80;41.30;;;;;;5007401;28;20197;-74
2021/03/05 09:32:20;;;;;;;5.53;3.80;;;12.10;40.90;;;;;;4994740;28;20421;-74
2021/03/05 09:34:49;;;;;;;4.97;3.00;;;12.10;40.50;;;;;;5010320;28;20424;-73
2021/03/05 09:37:20;;;;;;;5.23;3.37;;;12.10;40.80;;;;;;5014291;28;20445;-73
2021/03/05 09:39:48;;;;;;;6.10;3.67;;;12.60;39.50;;;;;;5005092;28;20449;-73
2021/03/05 09:42:14;;;;;;;7.20;4.43;;;12.80;38.90;;;;;;5013472;28;20835;-73
2021/03/05 09:44:47;;;;;;;6.10;4.17;;;13.00;39.40;;;;;;4996470;28;20483;-73
2021/03/05 09:47:13;;;;;;;5.70;4.10;;;13.40;39.10;;;;;;5003533;28;21082;-75
2021/03/05 09:49:39;;;;;;;4.80;3.73;;;13.60;38.00;;;;;;4977221;28;20439;-74
2021/03/05 09:52:24;;;;;;;5.67;4.23;;;13.30;38.40;;;;;;5001283;28;20430;-75
2021/03/05 09:54:50;;;;;;;6.17;4.27;;;13.10;39.20;;;;;;5010339;28;20490;-74
2021/03/05 09:57:21;;;;;;;8.10;4.17;;;13.00;38.70;;;;;;4992233;28;20491;-76
2021/03/05 09:59:51;;;;;;;5.63;3.87;;;12.80;38.90;;;;;;5013283;28;20549;-75
2021/03/05 10:02:21;;;;;;;6.10;4.30;;;12.90;38.30;;;;;;5016181;28;20467;-75
2021/03/05 10:04:49;;;;;;;6.40;4.23;;;13.00;38.10;;;;;;5016280;28;20456;-75
2021/03/05 10:07:19;;;;;;;7.07;4.40;;;12.00;38.10;;;;;;4983220;28;20511;-73
2021/03/05 10:09:45;;;;;;;5.40;3.30;;;11.40;40.10;;;;;;5002671;28;20496;-75
2021/03/05 10:12:11;;;;;;;5.93;4.10;;;10.80;40.40;;;;;;5015694;28;20736;-75
2021/03/05 10:14:39;;;;;;;10.40;6.17;;;10.70;41.70;;;;;;5015028;28;20552;-75
2021/03/05 10:17:10;;;;;;;7.30;4.20;;;10.70;41.20;;;;;;5016101;28;20517;-73
2021/03/05 10:19:38;;;;;;;7.10;4.33;;;11.30;40.00;;;;;;5014228;28;20474;-74
2021/03/05 10:22:05;;;;;;;5.90;3.93;;;11.50;39.10;;;;;;5007206;28;20417;-74
2021/03/05 10:24:30;;;;;;;5.90;3.43;;;12.10;38.70;;;;;;5008355;28;20427;-74
2021/03/05 10:27:12;;;;;;;5.37;3.63;;;12.40;38.00;;;;;;5029175;28;20537;-75
2021/03/05 10:30:00;;;;;;;5.53;3.57;;;12.60;36.50;;;;;;5001351;28;20202;-74
2021/03/05 10:32:28;;;;;;;5.27;3.70;;;11.80;37.70;;;;;;5013124;28;20414;-75
2021/03/05 10:34:58;;;;;;;5.13;3.70;;;11.20;38.50;;;;;;4995570;28;20426;-73
2021/03/05 10:37:25;;;;;;;6.00;3.87;;;10.30;39.80;;;;;;5007083;28;20438;-73
2021/03/05 10:39:51;;;;;;;5.43;3.27;;;9.40;41.60;;;;;;5007111;28;20446;-74
2021/03/05 10:42:19;;;;;;;5.93;4.17;;;8.70;43.30;;;;;;5013636;28;20492;-74
2021/03/05 10:44:47;;;;;;;4.67;3.47;;;8.20;44.80;;;;;;4986140;28;20437;-73
2021/03/05 10:47:15;;;;;;;5.33;3.33;;;7.90;45.10;;;;;;5028630;28;20463;-74
2021/03/05 10:49:43;;;;;;;5.87;3.77;;;7.60;46.00;;;;;;5016507;28;20430;-75
2021/03/05 10:52:12;;;;;;;5.53;3.30;;;7.80;45.90;;;;;;5001210;28;20493;-73
2021/03/05 10:54:39;;;;;;;4.00;3.33;;;8.20;44.70;;;;;;5009212;28;20426;-75
2021/03/05 10:57:07;;;;;;;5.90;3.20;;;8.20;43.20;;;;;;5018563;28;20888;-74
2021/03/05 10:59:33;;;;;;;5.20;4.50;;;8.20;44.20;;;;;;5003117;28;20438;-74
2021/03/05 11:01:58;;;;;;;6.00;3.43;;;8.20;44.20;;;;;;4995654;28;20421;-74
2021/03/05 11:04:25;;;;;;;7.57;4.37;;;8.20;44.60;;;;;;5010268;28;20221;-74
2021/03/05 11:06:51;;;;;;;4.60;2.93;;;8.10;44.70;;;;;;5007364;28;20191;-75
2021/03/05 11:09:18;;;;;;;5.30;3.47;;;7.90;44.20;;;;;;4978377;28;20430;-73
2021/03/05 11:11:44;;;;;;;4.07;3.10;;;7.80;44.40;;;;;;4992127;28;20409;-73
2021/03/05 11:14:10;;;;;;;4.10;3.23;;;7.70;43.20;;;;;;5015957;28;20485;-73
2021/03/05 11:16:37;;;;;;;7.50;5.60;;;7.60;42.70;;;;;;4998513;28;20426;-73
2021/03/05 11:19:04;;;;;;;5.20;3.00;;;7.50;42.80;;;;;;4993395;28;20434;-76
2021/03/05 11:21:29;;;;;;;6.90;3.73;;;7.30;44.00;;;;;;5018879;28;20929;-75
2021/03/05 11:23:55;;;;;;;4.30;3.03;;;7.10;44.70;;;;;;5022545;28;20422;-74
2021/03/05 11:26:22;;;;;;;5.27;3.60;;;7.10;45.10;;;;;;5012353;28;20229;-73
2021/03/05 11:28:48;;;;;;;5.10;3.30;;;7.10;45.70;;;;;;4985151;28;20474;-73
2021/03/05 11:31:14;;;;;;;6.43;3.80;;;7.00;45.10;;;;;;5002906;28;20422;-73
2021/03/05 11:33:40;;;;;;;3.80;3.17;;;6.70;45.10;;;;;;5023949;28;20941;-75
2021/03/05 11:36:06;;;;;;;5.83;3.47;;;6.50;45.70;;;;;;5001860;28;20711;-73
2021/03/05 11:38:33;;;;;;;7.27;3.80;;;6.60;45.70;;;;;;5024113;28;20587;-75
2021/03/05 11:41:00;;;;;;;8.37;3.50;;;6.70;45.80;;;;;;5022945;28;20527;-76
2021/03/05 11:43:26;;;;;;;7.20;4.53;;;6.80;45.80;;;;;;5015198;28;20441;-74
2021/03/05 11:45:51;;;;;;;7.93;3.73;;;6.90;46.30;;;;;;5005746;28;20421;-73
2021/03/05 11:48:17;;;;;;;6.00;3.87;;;7.00;45.40;;;;;;4998160;28;20201;-74
2021/03/05 11:50:43;;;;;;;5.90;3.70;;;7.00;44.90;;;;;;5029956;28;20187;-73
2021/03/05 11:53:09;;;;;;;5.83;4.00;;;7.00;45.30;;;;;;5039744;28;20492;-75
2021/03/05 11:55:34;;;;;;;5.37;3.80;;;7.10;46.20;;;;;;5009677;28;20672;-73
2021/03/05 11:58:00;;;;;;;4.03;3.60;;;7.20;45.20;;;;;;5018439;28;20170;-74
2021/03/05 12:00:28;;;;;;;8.20;4.70;;;7.30;45.60;;;;;;5015366;28;20191;-74
2021/03/05 12:02:53;;;;;;;7.33;4.40;;;7.30;46.10;;;;;;5016500;28;20425;-74
2021/03/05 12:05:20;;;;;;;6.00;4.23;;;7.10;46.40;;;;;;5028775;28;20414;-73
2021/03/05 12:07:46;;;;;;;4.10;3.50;;;7.10;46.60;;;;;;5035473;28;20258;-74
2021/03/05 12:10:52;;;;;;;11.17;6.23;;;7.00;46.40;;;;;;5035154;28;20442;-76
2021/03/05 12:13:18;;;;;;;8.23;4.73;;;6.90;45.70;;;;;;5045465;28;20421;-74
2021/03/05 12:15:45;;;;;;;6.70;3.90;;;6.70;45.80;;;;;;5002188;28;20414;-75
2021/03/05 12:18:11;;;;;;;7.53;3.90;;;6.50;45.30;;;;;;5018343;28;20414;-74
2021/03/05 12:20:38;;;;;;;11.47;3.90;;;6.40;45.00;;;;;;5012204;28;20410;-74
2021/03/05 12:23:05;;;;;;;8.27;3.83;;;6.20;44.60;;;;;;5008258;28;20498;-78
2021/03/05 12:25:31;;;;;;;3.87;3.40;;;6.30;44.80;;;;;;4985833;28;20422;-74
2021/03/05 12:27:56;;;;;;;6.83;4.40;;;6.40;44.70;;;;;;4989311;28;20466;-76
2021/03/05 12:30:23;;;;;;;9.70;4.10;;;6.40;45.20;;;;;;5009044;28;20517;-75
2021/03/05 12:32:49;;;;;;;6.57;4.47;;;6.60;45.80;;;;;;5008978;28;20178;-76
2021/03/05 12:35:16;;;;;;;5.07;3.70;;;6.80;45.50;;;;;;5013508;28;20513;-75
2021/03/05 12:37:43;;;;;;;8.10;3.77;;;7.00;45.50;;;;;;4973821;28;20775;-73
2021/03/05 12:40:10;;;;;;;8.70;3.70;;;7.20;45.10;;;;;;5010802;28;20440;-75
2021/03/05 12:42:36;;;;;;;6.07;3.33;;;7.20;44.00;;;;;;5008340;28;20422;-73
2021/03/05 12:45:05;;;;;;;8.27;3.93;;;7.20;43.90;;;;;;4976317;28;20510;-74
2021/03/05 12:47:31;;;;;;;7.77;5.70;;;7.20;43.30;;;;;;4985356;28;20531;-72
2021/03/05 12:49:57;;;;;;;9.67;3.83;;;7.00;43.40;;;;;;4977338;28;20857;-74
2021/03/05 12:52:22;;;;;;;5.23;3.30;;;6.90;43.70;;;;;;5007517;28;20506;-74
2021/03/05 12:54:48;;;;;;;5.00;3.60;;;6.80;43.30;;;;;;4974286;28;20188;-75
2021/03/05 12:57:14;;;;;;;5.77;3.17;;;6.90;42.90;;;;;;4984080;28;20171;-73
2021/03/05 12:59:39;;;;;;;4.33;2.97;;;6.90;41.50;;;;;;4990354;28;20195;-74